キエフ/ボリースピリ の空港の天気 - METARとTAF

ボリースピリ国際空港(キエフ) ( UKBB / KBP ) - ウクライナ ボリスピリ (キエフ近郊)
飛行場実況気象(Metar)
観測時間09/21 17:00 EEST (09/21 14:00 UTC)
風向・風速東南東 4m/s
視程10km以上
天気現象
なし
気温27℃
湿度39%
気圧1007hPa
METARUKBB 211400Z 12004MPS CAVOK 27/12 Q1007 R88/CLRD// NOSIG
過去の天気等 Google飛行場航空写真 Wunderground天気予報

過去48時間のMETAR

飛行場予報(TAF)
発表時間: 9/21 14:00 EEST (9/21 11:00 UTC)
予報対象時間: 21日15時 EEST ~ 22日15時 EEST
風向・風速東 7m/s 瞬間風速 12m/s
視程10km以上
全天の8割程度の雲 雲底高度 910m
21日15時 EEST ~ 21日21時 EEST に一時的に
風向・風速東南東 9m/s 瞬間風速 14m/s
全天の4割程度の積乱雲 雲底高度 610m
21日15時 EEST ~ 21日21時 EEST に 確率 40% で一時的に
風向・風速不定 13m/s 瞬間風速 18m/s
視程1,400m
天気現象雷雨ひょう
全天の4割程度の雲 雲底高度 210m
全天の8割程度の積乱雲 雲底高度 460m
21日21時 EEST ~ 22日9時 EEST に一時的に
風向・風速不定 10m/s 瞬間風速 15m/s
視程1,000m
天気現象弱い雷雨 もや
全天の8割程度の雲 雲底高度 120m
全天の4割程度の積乱雲 雲底高度 460m
TAF UKBB 211100Z 2112/2212 09007G12MPS 9999 BKN030
TEMPO 2112/2118 12009G14MPS SCT020CB
PROB40 TEMPO 2112/2118 VRB13G18MPS 1400 TSRAGR SCT007 BKN015CB
TEMPO 2118/2206 VRB10G15MPS 1000 -TSRA BR BKN004 SCT015CB TX29/2112Z TN14/2203Z